sensor_id;sensor_type;location;lat;lon;timestamp;P1;durP1;ratioP1;P2;durP2;ratioP2
50249;SDS011;36133;42.522;27.456;2023-01-23T00:01:20;40.47;;;16.15;;
50249;SDS011;36133;42.522;27.456;2023-01-23T00:03:51;37.15;;;17.20;;
50249;SDS011;36133;42.522;27.456;2023-01-23T00:06:17;37.28;;;16.98;;
50249;SDS011;36133;42.522;27.456;2023-01-23T00:08:43;38.13;;;16.27;;
50249;SDS011;36133;42.522;27.456;2023-01-23T00:11:10;40.97;;;17.20;;
50249;SDS011;36133;42.522;27.456;2023-01-23T00:13:37;42.83;;;17.10;;
50249;SDS011;36133;42.522;27.456;2023-01-23T00:16:06;34.80;;;16.70;;
50249;SDS011;36133;42.522;27.456;2023-01-23T00:18:34;39.35;;;16.92;;
50249;SDS011;36133;42.522;27.456;2023-01-23T00:21:03;38.38;;;17.38;;
50249;SDS011;36133;42.522;27.456;2023-01-23T00:23:33;34.17;;;16.48;;
50249;SDS011;36133;42.522;27.456;2023-01-23T00:26:07;40.20;;;15.85;;
50249;SDS011;36133;42.522;27.456;2023-01-23T00:35:53;36.28;;;13.77;;
50249;SDS011;36133;42.522;27.456;2023-01-23T00:38:19;37.35;;;14.43;;
50249;SDS011;36133;42.522;27.456;2023-01-23T00:40:44;39.58;;;14.48;;
50249;SDS011;36133;42.522;27.456;2023-01-23T00:43:09;37.38;;;14.25;;
50249;SDS011;36133;42.522;27.456;2023-01-23T00:45:35;35.70;;;14.82;;
50249;SDS011;36133;42.522;27.456;2023-01-23T00:48:02;36.25;;;14.82;;
50249;SDS011;36133;42.522;27.456;2023-01-23T00:50:27;32.08;;;14.10;;
50249;SDS011;36133;42.522;27.456;2023-01-23T00:52:52;37.95;;;14.65;;
50249;SDS011;36133;42.522;27.456;2023-01-23T00:55:18;32.90;;;15.38;;
50249;SDS011;36133;42.522;27.456;2023-01-23T00:57:43;34.28;;;14.43;;
50249;SDS011;36133;42.522;27.456;2023-01-23T01:00:09;40.00;;;15.10;;
50249;SDS011;36133;42.522;27.456;2023-01-23T01:02:35;35.17;;;14.90;;
50249;SDS011;36133;42.522;27.456;2023-01-23T01:05:00;29.10;;;13.30;;
50249;SDS011;36133;42.522;27.456;2023-01-23T01:07:26;35.10;;;13.70;;
50249;SDS011;36133;42.522;27.456;2023-01-23T01:09:51;34.85;;;13.25;;
50249;SDS011;36133;42.522;27.456;2023-01-23T01:12:17;33.58;;;13.88;;
50249;SDS011;36133;42.522;27.456;2023-01-23T01:14:43;30.27;;;13.18;;
50249;SDS011;36133;42.522;27.456;2023-01-23T01:17:09;28.38;;;14.07;;
50249;SDS011;36133;42.522;27.456;2023-01-23T01:19:34;34.13;;;13.98;;
50249;SDS011;36133;42.522;27.456;2023-01-23T01:22:00;35.25;;;13.45;;
50249;SDS011;36133;42.522;27.456;2023-01-23T01:24:26;31.20;;;14.45;;
50249;SDS011;36133;42.522;27.456;2023-01-23T01:26:52;30.27;;;14.20;;
50249;SDS011;36133;42.522;27.456;2023-01-23T01:29:17;31.20;;;14.32;;
50249;SDS011;36133;42.522;27.456;2023-01-23T01:31:43;34.97;;;14.70;;
50249;SDS011;36133;42.522;27.456;2023-01-23T01:34:08;37.35;;;15.18;;
50249;SDS011;36133;42.522;27.456;2023-01-23T01:36:34;41.25;;;15.45;;
50249;SDS011;36133;42.522;27.456;2023-01-23T01:38:59;52.47;;;14.82;;
50249;SDS011;36133;42.522;27.456;2023-01-23T01:41:25;32.38;;;15.13;;
50249;SDS011;36133;42.522;27.456;2023-01-23T01:43:50;31.40;;;13.50;;
50249;SDS011;36133;42.522;27.456;2023-01-23T01:46:21;31.88;;;14.18;;
50249;SDS011;36133;42.522;27.456;2023-01-23T01:48:49;27.90;;;13.95;;
50249;SDS011;36133;42.522;27.456;2023-01-23T01:53:40;34.67;;;14.73;;
50249;SDS011;36133;42.522;27.456;2023-01-23T01:56:07;33.85;;;15.27;;
50249;SDS011;36133;42.522;27.456;2023-01-23T01:58:36;36.00;;;16.45;;
50249;SDS011;36133;42.522;27.456;2023-01-23T02:01:03;30.88;;;14.75;;
50249;SDS011;36133;42.522;27.456;2023-01-23T02:03:29;41.90;;;16.30;;
50249;SDS011;36133;42.522;27.456;2023-01-23T02:05:54;35.78;;;15.27;;
50249;SDS011;36133;42.522;27.456;2023-01-23T02:08:26;31.67;;;16.33;;
50249;SDS011;36133;42.522;27.456;2023-01-23T02:10:56;30.42;;;15.25;;
50249;SDS011;36133;42.522;27.456;2023-01-23T02:13:35;41.80;;;16.45;;
50249;SDS011;36133;42.522;27.456;2023-01-23T02:16:07;28.70;;;13.93;;
50249;SDS011;36133;42.522;27.456;2023-01-23T02:18:36;25.98;;;14.20;;
50249;SDS011;36133;42.522;27.456;2023-01-23T02:21:07;33.80;;;16.05;;
50249;SDS011;36133;42.522;27.456;2023-01-23T02:23:55;38.45;;;16.08;;
50249;SDS011;36133;42.522;27.456;2023-01-23T02:26:44;30.83;;;15.60;;
50249;SDS011;36133;42.522;27.456;2023-01-23T02:29:11;29.55;;;14.15;;
50249;SDS011;36133;42.522;27.456;2023-01-23T02:31:37;39.00;;;14.90;;
50249;SDS011;36133;42.522;27.456;2023-01-23T02:34:03;31.55;;;13.93;;
50249;SDS011;36133;42.522;27.456;2023-01-23T02:36:30;32.10;;;14.82;;
50249;SDS011;36133;42.522;27.456;2023-01-23T02:39:02;31.10;;;14.20;;
50249;SDS011;36133;42.522;27.456;2023-01-23T02:41:35;32.35;;;13.70;;
50249;SDS011;36133;42.522;27.456;2023-01-23T02:44:13;35.42;;;15.48;;
50249;SDS011;36133;42.522;27.456;2023-01-23T02:46:41;31.75;;;14.65;;
50249;SDS011;36133;42.522;27.456;2023-01-23T02:49:08;35.65;;;15.40;;
50249;SDS011;36133;42.522;27.456;2023-01-23T02:51:33;35.35;;;15.05;;
50249;SDS011;36133;42.522;27.456;2023-01-23T02:53:59;32.13;;;14.55;;
50249;SDS011;36133;42.522;27.456;2023-01-23T02:56:25;33.72;;;13.77;;
50249;SDS011;36133;42.522;27.456;2023-01-23T02:58:50;24.48;;;12.30;;
50249;SDS011;36133;42.522;27.456;2023-01-23T03:01:34;33.15;;;14.40;;
50249;SDS011;36133;42.522;27.456;2023-01-23T03:04:03;33.05;;;14.98;;
50249;SDS011;36133;42.522;27.456;2023-01-23T03:06:31;31.20;;;13.93;;
50249;SDS011;36133;42.522;27.456;2023-01-23T03:09:11;32.83;;;15.02;;
50249;SDS011;36133;42.522;27.456;2023-01-23T03:11:40;33.50;;;14.55;;
50249;SDS011;36133;42.522;27.456;2023-01-23T03:14:09;31.48;;;15.30;;
50249;SDS011;36133;42.522;27.456;2023-01-23T03:16:36;32.40;;;15.02;;
50249;SDS011;36133;42.522;27.456;2023-01-23T03:19:02;36.70;;;14.88;;
50249;SDS011;36133;42.522;27.456;2023-01-23T03:21:32;33.45;;;15.45;;
50249;SDS011;36133;42.522;27.456;2023-01-23T03:23:58;33.03;;;13.43;;
50249;SDS011;36133;42.522;27.456;2023-01-23T03:26:24;31.35;;;13.23;;
50249;SDS011;36133;42.522;27.456;2023-01-23T03:28:49;29.95;;;14.40;;
50249;SDS011;36133;42.522;27.456;2023-01-23T03:31:33;29.45;;;14.05;;
50249;SDS011;36133;42.522;27.456;2023-01-23T03:33:59;31.35;;;13.07;;
50249;SDS011;36133;42.522;27.456;2023-01-23T03:36:25;29.73;;;14.55;;
50249;SDS011;36133;42.522;27.456;2023-01-23T03:38:50;33.53;;;13.23;;
50249;SDS011;36133;42.522;27.456;2023-01-23T03:41:34;30.23;;;13.10;;
50249;SDS011;36133;42.522;27.456;2023-01-23T03:44:02;30.33;;;12.30;;
50249;SDS011;36133;42.522;27.456;2023-01-23T03:46:27;25.40;;;12.68;;
50249;SDS011;36133;42.522;27.456;2023-01-23T03:48:53;33.75;;;13.80;;
50249;SDS011;36133;42.522;27.456;2023-01-23T03:51:18;26.75;;;13.63;;
50249;SDS011;36133;42.522;27.456;2023-01-23T03:53:44;28.25;;;14.10;;
50249;SDS011;36133;42.522;27.456;2023-01-23T03:56:09;25.23;;;13.43;;
50249;SDS011;36133;42.522;27.456;2023-01-23T03:58:35;34.60;;;14.57;;
50249;SDS011;36133;42.522;27.456;2023-01-23T04:01:03;29.35;;;12.88;;
50249;SDS011;36133;42.522;27.456;2023-01-23T04:03:30;25.67;;;12.35;;
50249;SDS011;36133;42.522;27.456;2023-01-23T04:05:56;28.45;;;11.93;;
50249;SDS011;36133;42.522;27.456;2023-01-23T04:08:23;30.60;;;12.18;;
50249;SDS011;36133;42.522;27.456;2023-01-23T04:10:48;26.40;;;11.75;;
50249;SDS011;36133;42.522;27.456;2023-01-23T04:13:14;29.02;;;11.93;;
50249;SDS011;36133;42.522;27.456;2023-01-23T04:15:39;21.67;;;11.35;;
50249;SDS011;36133;42.522;27.456;2023-01-23T04:18:05;25.38;;;11.57;;
50249;SDS011;36133;42.522;27.456;2023-01-23T04:20:30;26.48;;;11.68;;
50249;SDS011;36133;42.522;27.456;2023-01-23T04:22:56;25.67;;;12.13;;
50249;SDS011;36133;42.522;27.456;2023-01-23T04:25:21;19.85;;;10.05;;
50249;SDS011;36133;42.522;27.456;2023-01-23T04:27:47;29.17;;;11.32;;
50249;SDS011;36133;42.522;27.456;2023-01-23T04:30:12;26.63;;;11.70;;
50249;SDS011;36133;42.522;27.456;2023-01-23T04:32:38;26.00;;;11.80;;
50249;SDS011;36133;42.522;27.456;2023-01-23T04:35:03;23.13;;;10.98;;
50249;SDS011;36133;42.522;27.456;2023-01-23T04:37:29;30.77;;;11.63;;
50249;SDS011;36133;42.522;27.456;2023-01-23T04:39:55;24.00;;;11.23;;
50249;SDS011;36133;42.522;27.456;2023-01-23T04:42:20;28.13;;;11.60;;
50249;SDS011;36133;42.522;27.456;2023-01-23T04:44:46;24.55;;;11.45;;
50249;SDS011;36133;42.522;27.456;2023-01-23T04:47:11;24.27;;;10.63;;
50249;SDS011;36133;42.522;27.456;2023-01-23T04:49:37;26.90;;;11.75;;
50249;SDS011;36133;42.522;27.456;2023-01-23T04:52:02;28.08;;;11.82;;
50249;SDS011;36133;42.522;27.456;2023-01-23T04:54:28;28.40;;;11.23;;
50249;SDS011;36133;42.522;27.456;2023-01-23T04:56:54;20.98;;;10.77;;
50249;SDS011;36133;42.522;27.456;2023-01-23T04:59:19;30.95;;;11.82;;
50249;SDS011;36133;42.522;27.456;2023-01-23T05:01:46;25.70;;;10.48;;
50249;SDS011;36133;42.522;27.456;2023-01-23T05:04:12;26.13;;;10.70;;
50249;SDS011;36133;42.522;27.456;2023-01-23T05:06:38;32.15;;;11.30;;
50249;SDS011;36133;42.522;27.456;2023-01-23T05:09:03;22.65;;;10.48;;
50249;SDS011;36133;42.522;27.456;2023-01-23T05:11:29;25.38;;;10.75;;
50249;SDS011;36133;42.522;27.456;2023-01-23T05:13:55;21.92;;;9.82;;
50249;SDS011;36133;42.522;27.456;2023-01-23T05:16:21;23.40;;;10.80;;
50249;SDS011;36133;42.522;27.456;2023-01-23T05:18:46;20.45;;;11.05;;
50249;SDS011;36133;42.522;27.456;2023-01-23T05:21:12;26.92;;;11.30;;
50249;SDS011;36133;42.522;27.456;2023-01-23T05:23:37;33.45;;;10.82;;
50249;SDS011;36133;42.522;27.456;2023-01-23T05:26:03;27.60;;;10.85;;
50249;SDS011;36133;42.522;27.456;2023-01-23T05:28:28;26.45;;;11.98;;
50249;SDS011;36133;42.522;27.456;2023-01-23T05:30:54;27.33;;;11.27;;
50249;SDS011;36133;42.522;27.456;2023-01-23T05:33:20;33.45;;;12.45;;
50249;SDS011;36133;42.522;27.456;2023-01-23T05:35:46;21.45;;;10.10;;
50249;SDS011;36133;42.522;27.456;2023-01-23T05:38:12;32.60;;;11.48;;
50249;SDS011;36133;42.522;27.456;2023-01-23T05:40:37;27.60;;;11.82;;
50249;SDS011;36133;42.522;27.456;2023-01-23T05:43:03;22.75;;;10.73;;
50249;SDS011;36133;42.522;27.456;2023-01-23T05:45:29;26.35;;;11.43;;
50249;SDS011;36133;42.522;27.456;2023-01-23T05:47:54;32.15;;;11.57;;
50249;SDS011;36133;42.522;27.456;2023-01-23T05:50:20;28.95;;;11.93;;
50249;SDS011;36133;42.522;27.456;2023-01-23T05:52:47;29.45;;;11.70;;
50249;SDS011;36133;42.522;27.456;2023-01-23T05:55:13;26.63;;;11.75;;
50249;SDS011;36133;42.522;27.456;2023-01-23T05:57:38;29.83;;;11.50;;
50249;SDS011;36133;42.522;27.456;2023-01-23T06:00:05;23.88;;;9.77;;
50249;SDS011;36133;42.522;27.456;2023-01-23T06:02:32;27.63;;;10.55;;
50249;SDS011;36133;42.522;27.456;2023-01-23T06:04:57;24.10;;;10.52;;
50249;SDS011;36133;42.522;27.456;2023-01-23T06:07:23;24.13;;;10.90;;
50249;SDS011;36133;42.522;27.456;2023-01-23T06:09:48;20.90;;;9.10;;
50249;SDS011;36133;42.522;27.456;2023-01-23T06:12:14;27.33;;;9.93;;
50249;SDS011;36133;42.522;27.456;2023-01-23T06:14:39;22.35;;;9.82;;
50249;SDS011;36133;42.522;27.456;2023-01-23T06:17:05;34.17;;;10.70;;
50249;SDS011;36133;42.522;27.456;2023-01-23T06:19:32;18.80;;;9.98;;
50249;SDS011;36133;42.522;27.456;2023-01-23T06:21:57;19.00;;;9.90;;
50249;SDS011;36133;42.522;27.456;2023-01-23T06:24:23;23.70;;;9.82;;
50249;SDS011;36133;42.522;27.456;2023-01-23T06:26:48;25.00;;;10.10;;
50249;SDS011;36133;42.522;27.456;2023-01-23T06:29:14;19.52;;;8.80;;
50249;SDS011;36133;42.522;27.456;2023-01-23T06:31:40;19.10;;;7.78;;
50249;SDS011;36133;42.522;27.456;2023-01-23T06:34:05;20.63;;;9.40;;
50249;SDS011;36133;42.522;27.456;2023-01-23T06:36:31;22.45;;;8.60;;
50249;SDS011;36133;42.522;27.456;2023-01-23T06:38:58;21.13;;;8.75;;
50249;SDS011;36133;42.522;27.456;2023-01-23T06:41:23;20.40;;;8.82;;
50249;SDS011;36133;42.522;27.456;2023-01-23T06:43:49;21.15;;;8.70;;
50249;SDS011;36133;42.522;27.456;2023-01-23T06:46:14;22.90;;;9.73;;
50249;SDS011;36133;42.522;27.456;2023-01-23T06:48:40;26.10;;;11.70;;
50249;SDS011;36133;42.522;27.456;2023-01-23T06:51:05;26.98;;;11.20;;
50249;SDS011;36133;42.522;27.456;2023-01-23T06:53:31;24.85;;;10.30;;
50249;SDS011;36133;42.522;27.456;2023-01-23T06:56:04;24.10;;;10.60;;
50249;SDS011;36133;42.522;27.456;2023-01-23T06:58:31;23.85;;;10.63;;
50249;SDS011;36133;42.522;27.456;2023-01-23T07:00:57;26.40;;;10.45;;
50249;SDS011;36133;42.522;27.456;2023-01-23T07:03:23;22.48;;;10.40;;
50249;SDS011;36133;42.522;27.456;2023-01-23T07:05:48;22.95;;;10.38;;
50249;SDS011;36133;42.522;27.456;2023-01-23T07:08:14;31.35;;;10.82;;
50249;SDS011;36133;42.522;27.456;2023-01-23T07:10:40;27.15;;;11.48;;
50249;SDS011;36133;42.522;27.456;2023-01-23T07:13:06;24.27;;;11.32;;
50249;SDS011;36133;42.522;27.456;2023-01-23T07:15:33;25.08;;;9.85;;
50249;SDS011;36133;42.522;27.456;2023-01-23T07:17:59;24.38;;;10.20;;
50249;SDS011;36133;42.522;27.456;2023-01-23T07:20:25;34.00;;;11.20;;
50249;SDS011;36133;42.522;27.456;2023-01-23T07:22:52;24.38;;;11.00;;
50249;SDS011;36133;42.522;27.456;2023-01-23T07:25:18;21.25;;;9.63;;
50249;SDS011;36133;42.522;27.456;2023-01-23T07:27:43;23.40;;;10.77;;
50249;SDS011;36133;42.522;27.456;2023-01-23T07:30:09;20.55;;;9.00;;
50249;SDS011;36133;42.522;27.456;2023-01-23T07:32:35;28.33;;;10.98;;
50249;SDS011;36133;42.522;27.456;2023-01-23T07:35:01;18.50;;;10.75;;
50249;SDS011;36133;42.522;27.456;2023-01-23T07:37:26;29.38;;;11.25;;
50249;SDS011;36133;42.522;27.456;2023-01-23T07:39:51;23.83;;;11.48;;
50249;SDS011;36133;42.522;27.456;2023-01-23T07:42:18;28.52;;;12.23;;
50249;SDS011;36133;42.522;27.456;2023-01-23T07:44:43;26.15;;;11.32;;
50249;SDS011;36133;42.522;27.456;2023-01-23T07:47:09;22.88;;;10.50;;
50249;SDS011;36133;42.522;27.456;2023-01-23T07:49:34;29.40;;;11.30;;
50249;SDS011;36133;42.522;27.456;2023-01-23T07:52:00;22.48;;;10.63;;
50249;SDS011;36133;42.522;27.456;2023-01-23T07:54:26;27.15;;;11.90;;
50249;SDS011;36133;42.522;27.456;2023-01-23T07:56:51;21.20;;;10.50;;
50249;SDS011;36133;42.522;27.456;2023-01-23T07:59:17;27.63;;;11.52;;
50249;SDS011;36133;42.522;27.456;2023-01-23T08:01:42;20.88;;;10.48;;
50249;SDS011;36133;42.522;27.456;2023-01-23T08:04:08;28.95;;;11.68;;
50249;SDS011;36133;42.522;27.456;2023-01-23T08:06:33;23.27;;;10.65;;
50249;SDS011;36133;42.522;27.456;2023-01-23T08:08:59;24.52;;;11.18;;
50249;SDS011;36133;42.522;27.456;2023-01-23T08:11:25;32.35;;;12.10;;
50249;SDS011;36133;42.522;27.456;2023-01-23T08:13:51;24.95;;;10.73;;
50249;SDS011;36133;42.522;27.456;2023-01-23T08:16:17;21.60;;;10.38;;
50249;SDS011;36133;42.522;27.456;2023-01-23T08:18:43;28.45;;;11.10;;
50249;SDS011;36133;42.522;27.456;2023-01-23T08:21:08;27.60;;;10.60;;
50249;SDS011;36133;42.522;27.456;2023-01-23T08:23:34;27.70;;;11.10;;
50249;SDS011;36133;42.522;27.456;2023-01-23T08:26:01;23.10;;;10.32;;
50249;SDS011;36133;42.522;27.456;2023-01-23T08:28:29;28.67;;;11.15;;
50249;SDS011;36133;42.522;27.456;2023-01-23T08:30:58;24.63;;;11.75;;
50249;SDS011;36133;42.522;27.456;2023-01-23T08:33:25;26.10;;;10.75;;
50249;SDS011;36133;42.522;27.456;2023-01-23T08:35:54;36.40;;;11.43;;
50249;SDS011;36133;42.522;27.456;2023-01-23T08:38:21;24.25;;;9.82;;
50249;SDS011;36133;42.522;27.456;2023-01-23T08:40:48;22.27;;;10.85;;
50249;SDS011;36133;42.522;27.456;2023-01-23T08:43:15;33.70;;;12.00;;
50249;SDS011;36133;42.522;27.456;2023-01-23T08:45:46;25.10;;;10.60;;
50249;SDS011;36133;42.522;27.456;2023-01-23T08:48:13;26.92;;;10.77;;
50249;SDS011;36133;42.522;27.456;2023-01-23T08:50:39;25.73;;;10.30;;
50249;SDS011;36133;42.522;27.456;2023-01-23T08:53:05;25.85;;;10.02;;
50249;SDS011;36133;42.522;27.456;2023-01-23T08:55:31;26.10;;;9.57;;
50249;SDS011;36133;42.522;27.456;2023-01-23T08:57:57;22.98;;;9.45;;
50249;SDS011;36133;42.522;27.456;2023-01-23T09:00:23;20.55;;;9.98;;
50249;SDS011;36133;42.522;27.456;2023-01-23T09:02:49;26.45;;;10.15;;
50249;SDS011;36133;42.522;27.456;2023-01-23T09:05:16;24.73;;;10.52;;
50249;SDS011;36133;42.522;27.456;2023-01-23T09:07:41;22.42;;;9.65;;
50249;SDS011;36133;42.522;27.456;2023-01-23T09:10:08;22.13;;;10.02;;
50249;SDS011;36133;42.522;27.456;2023-01-23T09:12:34;29.40;;;10.50;;
50249;SDS011;36133;42.522;27.456;2023-01-23T09:15:00;25.65;;;10.80;;
50249;SDS011;36133;42.522;27.456;2023-01-23T09:17:25;21.45;;;9.73;;
50249;SDS011;36133;42.522;27.456;2023-01-23T09:19:51;22.55;;;9.55;;
50249;SDS011;36133;42.522;27.456;2023-01-23T09:22:18;26.30;;;10.07;;
50249;SDS011;36133;42.522;27.456;2023-01-23T09:24:44;24.02;;;9.60;;
50249;SDS011;36133;42.522;27.456;2023-01-23T09:27:09;23.20;;;10.32;;
50249;SDS011;36133;42.522;27.456;2023-01-23T09:29:35;21.52;;;11.15;;
50249;SDS011;36133;42.522;27.456;2023-01-23T09:32:01;24.52;;;11.00;;
50249;SDS011;36133;42.522;27.456;2023-01-23T09:34:28;26.88;;;11.60;;
50249;SDS011;36133;42.522;27.456;2023-01-23T09:36:53;27.77;;;10.63;;
50249;SDS011;36133;42.522;27.456;2023-01-23T09:39:19;29.13;;;10.38;;
50249;SDS011;36133;42.522;27.456;2023-01-23T09:41:45;22.98;;;10.40;;
50249;SDS011;36133;42.522;27.456;2023-01-23T09:47:08;30.90;;;10.93;;
50249;SDS011;36133;42.522;27.456;2023-01-23T09:49:59;25.30;;;10.90;;
50249;SDS011;36133;42.522;27.456;2023-01-23T09:52:35;21.20;;;9.43;;
50249;SDS011;36133;42.522;27.456;2023-01-23T09:57:37;27.52;;;11.00;;
50249;SDS011;36133;42.522;27.456;2023-01-23T10:00:12;23.10;;;9.27;;
50249;SDS011;36133;42.522;27.456;2023-01-23T10:02:44;22.33;;;9.68;;
50249;SDS011;36133;42.522;27.456;2023-01-23T10:05:14;21.25;;;9.55;;
50249;SDS011;36133;42.522;27.456;2023-01-23T10:13:17;23.30;;;10.57;;
50249;SDS011;36133;42.522;27.456;2023-01-23T10:15:59;22.20;;;10.60;;
50249;SDS011;36133;42.522;27.456;2023-01-23T10:18:43;20.63;;;8.85;;
50249;SDS011;36133;42.522;27.456;2023-01-23T10:21:28;19.83;;;8.73;;
50249;SDS011;36133;42.522;27.456;2023-01-23T10:27:12;20.05;;;8.95;;
50249;SDS011;36133;42.522;27.456;2023-01-23T10:29:41;18.00;;;8.88;;
50249;SDS011;36133;42.522;27.456;2023-01-23T10:32:22;21.05;;;9.10;;
50249;SDS011;36133;42.522;27.456;2023-01-23T10:34:59;22.77;;;8.70;;
50249;SDS011;36133;42.522;27.456;2023-01-23T10:37:39;19.90;;;9.52;;
50249;SDS011;36133;42.522;27.456;2023-01-23T10:40:11;20.05;;;9.45;;
50249;SDS011;36133;42.522;27.456;2023-01-23T10:42:41;22.83;;;8.50;;
50249;SDS011;36133;42.522;27.456;2023-01-23T10:45:17;16.98;;;9.05;;
50249;SDS011;36133;42.522;27.456;2023-01-23T10:47:47;22.23;;;8.43;;
50249;SDS011;36133;42.522;27.456;2023-01-23T10:50:13;22.15;;;10.13;;
50249;SDS011;36133;42.522;27.456;2023-01-23T10:52:40;30.77;;;9.43;;
50249;SDS011;36133;42.522;27.456;2023-01-23T10:57:46;22.80;;;9.20;;
50249;SDS011;36133;42.522;27.456;2023-01-23T11:02:47;25.67;;;9.32;;
50249;SDS011;36133;42.522;27.456;2023-01-23T11:08:02;26.33;;;10.27;;
50249;SDS011;36133;42.522;27.456;2023-01-23T11:10:35;26.58;;;9.25;;
50249;SDS011;36133;42.522;27.456;2023-01-23T11:13:01;26.80;;;9.38;;
50249;SDS011;36133;42.522;27.456;2023-01-23T11:15:28;20.73;;;9.35;;
50249;SDS011;36133;42.522;27.456;2023-01-23T11:17:57;21.17;;;9.77;;
50249;SDS011;36133;42.522;27.456;2023-01-23T11:25:38;23.63;;;10.50;;
50249;SDS011;36133;42.522;27.456;2023-01-23T11:28:17;26.25;;;11.30;;
50249;SDS011;36133;42.522;27.456;2023-01-23T11:33:32;25.13;;;9.07;;
50249;SDS011;36133;42.522;27.456;2023-01-23T11:38:46;36.85;;;11.63;;
50249;SDS011;36133;42.522;27.456;2023-01-23T11:41:15;36.08;;;10.48;;
50249;SDS011;36133;42.522;27.456;2023-01-23T11:43:41;24.75;;;10.88;;
50249;SDS011;36133;42.522;27.456;2023-01-23T11:48:58;25.45;;;11.77;;
50249;SDS011;36133;42.522;27.456;2023-01-23T11:51:42;31.27;;;11.40;;
50249;SDS011;36133;42.522;27.456;2023-01-23T11:54:18;25.52;;;11.63;;
50249;SDS011;36133;42.522;27.456;2023-01-23T12:08:35;30.42;;;10.82;;
50249;SDS011;36133;42.522;27.456;2023-01-23T12:11:39;23.50;;;10.02;;
50249;SDS011;36133;42.522;27.456;2023-01-23T12:14:42;23.05;;;10.23;;
50249;SDS011;36133;42.522;27.456;2023-01-23T12:40:09;23.88;;;10.73;;
50249;SDS011;36133;42.522;27.456;2023-01-23T12:45:26;29.38;;;11.85;;
50249;SDS011;36133;42.522;27.456;2023-01-23T12:48:13;27.48;;;12.90;;
50249;SDS011;36133;42.522;27.456;2023-01-23T12:50:51;25.80;;;10.93;;
50249;SDS011;36133;42.522;27.456;2023-01-23T12:53:22;28.23;;;11.20;;
50249;SDS011;36133;42.522;27.456;2023-01-23T12:58:15;31.17;;;11.57;;
50249;SDS011;36133;42.522;27.456;2023-01-23T13:00:55;21.98;;;10.35;;
50249;SDS011;36133;42.522;27.456;2023-01-23T13:14:38;29.60;;;10.50;;
50249;SDS011;36133;42.522;27.456;2023-01-23T13:20:17;18.92;;;9.52;;
50249;SDS011;36133;42.522;27.456;2023-01-23T13:23:22;27.48;;;10.07;;
50249;SDS011;36133;42.522;27.456;2023-01-23T13:36:48;24.10;;;10.18;;
50249;SDS011;36133;42.522;27.456;2023-01-23T13:41:41;26.48;;;9.88;;
50249;SDS011;36133;42.522;27.456;2023-01-23T13:44:21;25.15;;;10.02;;
50249;SDS011;36133;42.522;27.456;2023-01-23T13:52:50;20.88;;;9.32;;
50249;SDS011;36133;42.522;27.456;2023-01-23T13:58:24;22.50;;;9.77;;
50249;SDS011;36133;42.522;27.456;2023-01-23T14:03:45;24.98;;;11.80;;
50249;SDS011;36133;42.522;27.456;2023-01-23T14:06:35;21.95;;;11.20;;
50249;SDS011;36133;42.522;27.456;2023-01-23T14:09:02;30.70;;;10.15;;
50249;SDS011;36133;42.522;27.456;2023-01-23T14:11:41;21.63;;;9.57;;
50249;SDS011;36133;42.522;27.456;2023-01-23T14:14:10;24.83;;;9.55;;
50249;SDS011;36133;42.522;27.456;2023-01-23T14:17:00;26.30;;;10.60;;
50249;SDS011;36133;42.522;27.456;2023-01-23T14:19:26;24.25;;;11.07;;
50249;SDS011;36133;42.522;27.456;2023-01-23T14:21:54;23.25;;;11.02;;
50249;SDS011;36133;42.522;27.456;2023-01-23T14:24:24;26.70;;;11.13;;
50249;SDS011;36133;42.522;27.456;2023-01-23T14:26:58;25.90;;;10.75;;
50249;SDS011;36133;42.522;27.456;2023-01-23T14:29:25;24.73;;;12.27;;
50249;SDS011;36133;42.522;27.456;2023-01-23T14:31:52;25.35;;;11.55;;
50249;SDS011;36133;42.522;27.456;2023-01-23T14:34:20;30.13;;;12.50;;
50249;SDS011;36133;42.522;27.456;2023-01-23T14:36:51;24.02;;;11.20;;
50249;SDS011;36133;42.522;27.456;2023-01-23T14:39:21;26.83;;;12.05;;
50249;SDS011;36133;42.522;27.456;2023-01-23T14:41:51;29.70;;;11.77;;
50249;SDS011;36133;42.522;27.456;2023-01-23T14:44:23;29.70;;;12.00;;
50249;SDS011;36133;42.522;27.456;2023-01-23T14:46:53;27.17;;;11.65;;
50249;SDS011;36133;42.522;27.456;2023-01-23T14:49:25;27.42;;;11.85;;
50249;SDS011;36133;42.522;27.456;2023-01-23T14:51:55;27.95;;;12.93;;
50249;SDS011;36133;42.522;27.456;2023-01-23T14:54:25;30.27;;;12.40;;
50249;SDS011;36133;42.522;27.456;2023-01-23T14:56:51;31.80;;;12.32;;
50249;SDS011;36133;42.522;27.456;2023-01-23T14:59:33;30.98;;;13.48;;
50249;SDS011;36133;42.522;27.456;2023-01-23T15:02:02;32.38;;;13.55;;
50249;SDS011;36133;42.522;27.456;2023-01-23T15:07:44;36.70;;;13.18;;
50249;SDS011;36133;42.522;27.456;2023-01-23T15:10:17;33.08;;;14.45;;
50249;SDS011;36133;42.522;27.456;2023-01-23T15:15:15;34.20;;;14.85;;
50249;SDS011;36133;42.522;27.456;2023-01-23T15:17:43;41.63;;;16.45;;
50249;SDS011;36133;42.522;27.456;2023-01-23T15:22:56;36.75;;;15.95;;
50249;SDS011;36133;42.522;27.456;2023-01-23T15:25:29;29.00;;;14.63;;
50249;SDS011;36133;42.522;27.456;2023-01-23T15:27:57;32.53;;;13.65;;
50249;SDS011;36133;42.522;27.456;2023-01-23T15:32:58;35.60;;;14.47;;
50249;SDS011;36133;42.522;27.456;2023-01-23T15:35:35;44.58;;;16.02;;
50249;SDS011;36133;42.522;27.456;2023-01-23T15:38:02;41.25;;;15.85;;
50249;SDS011;36133;42.522;27.456;2023-01-23T15:40:29;35.20;;;15.52;;
50249;SDS011;36133;42.522;27.456;2023-01-23T15:45:31;42.58;;;17.65;;
50249;SDS011;36133;42.522;27.456;2023-01-23T15:47:58;36.72;;;17.20;;
50249;SDS011;36133;42.522;27.456;2023-01-23T15:50:24;39.20;;;17.15;;
50249;SDS011;36133;42.522;27.456;2023-01-23T15:52:51;38.97;;;17.13;;
50249;SDS011;36133;42.522;27.456;2023-01-23T15:55:18;42.83;;;19.35;;
50249;SDS011;36133;42.522;27.456;2023-01-23T15:57:45;38.42;;;18.02;;
50249;SDS011;36133;42.522;27.456;2023-01-23T16:00:17;36.92;;;17.90;;
50249;SDS011;36133;42.522;27.456;2023-01-23T16:02:49;40.58;;;18.17;;
50249;SDS011;36133;42.522;27.456;2023-01-23T16:05:20;40.47;;;18.20;;
50249;SDS011;36133;42.522;27.456;2023-01-23T16:07:48;45.95;;;20.70;;
50249;SDS011;36133;42.522;27.456;2023-01-23T16:10:22;42.95;;;20.05;;
50249;SDS011;36133;42.522;27.456;2023-01-23T16:13:08;38.90;;;18.77;;
50249;SDS011;36133;42.522;27.456;2023-01-23T16:15:37;46.40;;;20.00;;
50249;SDS011;36133;42.522;27.456;2023-01-23T16:18:04;35.55;;;19.25;;
50249;SDS011;36133;42.522;27.456;2023-01-23T16:20:34;42.05;;;20.77;;
50249;SDS011;36133;42.522;27.456;2023-01-23T16:23:03;40.22;;;20.98;;
50249;SDS011;36133;42.522;27.456;2023-01-23T16:28:22;43.92;;;21.52;;
50249;SDS011;36133;42.522;27.456;2023-01-23T16:30:50;43.20;;;20.92;;
50249;SDS011;36133;42.522;27.456;2023-01-23T16:33:17;40.58;;;19.75;;
50249;SDS011;36133;42.522;27.456;2023-01-23T16:35:43;33.60;;;18.77;;
50249;SDS011;36133;42.522;27.456;2023-01-23T16:38:21;42.15;;;20.95;;
50249;SDS011;36133;42.522;27.456;2023-01-23T16:41:07;39.10;;;19.25;;